createdAt,value
2024-04-18T00:00:24.503Z,0
2024-04-18T00:05:34.497Z,0
2024-04-18T00:10:52.728Z,0
2024-04-18T00:16:12.112Z,0
2024-04-18T00:21:32.184Z,0
2024-04-18T00:26:51.139Z,0
2024-04-18T00:32:10.853Z,0
2024-04-18T00:37:30.184Z,0
2024-04-18T00:44:04.534Z,0
2024-04-18T00:48:19.137Z,0
2024-04-18T00:53:27.824Z,0
2024-04-18T00:58:47.419Z,0
2024-04-18T01:09:25.088Z,0
2024-04-18T01:14:44.204Z,0
2024-04-18T01:20:03.779Z,0
2024-04-18T01:25:22.730Z,0
2024-04-18T01:30:42.337Z,0
2024-04-18T01:36:00.896Z,0
2024-04-18T01:41:21.255Z,0
2024-04-18T01:46:39.465Z,0
2024-04-18T01:51:59.463Z,0
2024-04-18T02:02:36.878Z,0
2024-04-18T02:07:57.418Z,0
2024-04-18T02:13:16.612Z,0
2024-04-18T02:18:35.933Z,0
2024-04-18T02:23:54.364Z,0
2024-04-18T02:34:33.662Z,0
2024-04-18T02:39:53.632Z,0
2024-04-18T02:45:12.535Z,0
2024-04-18T02:55:50.847Z,0
2024-04-18T03:01:09.312Z,0
2024-04-18T03:11:47.656Z,0
2024-04-18T03:17:06.950Z,0
2024-04-18T03:22:26.041Z,0
2024-04-18T03:27:45.698Z,0
2024-04-18T03:33:05.420Z,0
2024-04-18T03:38:25.266Z,0
2024-04-18T03:43:43.736Z,0
2024-04-18T03:49:02.955Z,0
2024-04-18T03:54:21.789Z,0
2024-04-18T03:59:41.120Z,0
2024-04-18T04:05:00.653Z,0
2024-04-18T04:10:19.807Z,4
2024-04-18T04:20:58.928Z,17
2024-04-18T04:26:17.640Z,30.05
2024-04-18T04:31:36.565Z,34.75
2024-04-18T04:36:55.670Z,36.39
2024-04-18T04:42:14.922Z,45.64
2024-04-18T04:47:34.849Z,48.75
2024-04-18T04:52:54.325Z,60.5
2024-04-18T05:03:32.797Z,67.94
2024-04-18T05:10:31.397Z,78.8
2024-04-18T05:14:46.749Z,76.19
2024-04-18T05:19:30.252Z,84
2024-04-18T05:24:49.722Z,88.25
2024-04-18T05:35:29.210Z,105.2
2024-04-18T05:40:47.213Z,109.75
2024-04-18T05:46:06.650Z,106.39
2024-04-18T05:51:25.850Z,104.75
2024-04-18T05:56:46.295Z,105.5
2024-04-18T06:02:04.197Z,114.29
2024-04-18T06:07:23.286Z,131.14
2024-04-18T06:18:03.103Z,97.25
2024-04-18T06:23:21.384Z,118.1
2024-04-18T06:28:40.717Z,135.1
2024-04-18T06:34:00.372Z,113.79
2024-04-18T06:39:20.392Z,109.75
2024-04-18T06:44:38.642Z,108.04
2024-04-18T06:49:58.493Z,156.6
2024-04-18T06:55:17.245Z,191.25
2024-04-18T07:00:36.950Z,190.5
2024-04-18T07:05:56.013Z,152.04
2024-04-18T07:11:16.334Z,138.75
2024-04-18T07:16:34.720Z,130
2024-04-18T07:21:54.484Z,174.84
2024-04-18T07:27:13.386Z,157.85
2024-04-18T07:32:32.219Z,298.7
2024-04-18T07:38:00.429Z,308.04
2024-04-18T07:43:11.884Z,336.15
2024-04-18T07:48:30.926Z,269.29
2024-04-18T07:59:11.314Z,199.09
2024-04-18T08:09:50.634Z,282.09
2024-04-18T08:15:08.752Z,232.25
2024-04-18T08:20:27.406Z,286.25
2024-04-18T08:25:46.678Z,277.09
2024-04-18T08:31:05.874Z,307.45
2024-04-18T08:36:25.156Z,263.79
2024-04-18T08:41:44.410Z,386.9
2024-04-18T08:47:03.847Z,468.09
2024-04-18T08:52:23.370Z,502
2024-04-18T08:57:43.046Z,423.15
2024-04-18T09:03:02.708Z,542.54
2024-04-18T09:08:21.723Z,571.5
2024-04-18T09:13:40.945Z,333.89
2024-04-18T09:19:00.623Z,250.39
2024-04-18T09:24:20.329Z,253.79
2024-04-18T09:29:39.949Z,375.65
2024-04-18T09:34:59.692Z,283.95
2024-04-18T09:40:18.770Z,254.34
2024-04-18T09:45:37.385Z,258.64
2024-04-18T09:50:56.780Z,245.7
2024-04-18T09:56:16.219Z,246.34
2024-04-18T10:01:36.147Z,289.04
2024-04-18T10:06:54.682Z,322.64
2024-04-18T10:08:02.938Z,320.29
2024-04-18T10:18:05.915Z,368.34
2024-04-18T10:23:25.185Z,552
2024-04-18T10:28:44.449Z,474.96
2024-04-18T10:34:04.805Z,590.42
2024-04-18T10:39:22.868Z,270.09
2024-04-18T10:44:42.217Z,186.44
2024-04-18T10:50:01.290Z,194.2
2024-04-18T11:01:55.495Z,175.5
2024-04-18T11:06:01.166Z,177.4
2024-04-18T11:11:20.550Z,196.04
2024-04-18T11:16:40.061Z,259.84
2024-04-18T11:21:57.924Z,336.55
2024-04-18T11:32:37.246Z,618.44
2024-04-18T11:37:56.822Z,494.63
2024-04-18T11:43:15.606Z,238.28
2024-04-18T11:48:34.929Z,446.83
2024-04-18T11:53:53.803Z,139.04
2024-04-18T11:59:12.883Z,212.85
2024-04-18T12:04:32.512Z,121.94
2024-04-18T12:09:51.032Z,314.96
2024-04-18T12:15:09.946Z,299.84
2024-04-18T12:20:29.253Z,450.65
2024-04-18T12:25:48.445Z,321.28
2024-04-18T12:31:08.010Z,50.52
2024-04-18T12:36:28.238Z,189.07
2024-04-18T12:41:46.483Z,171.98
2024-04-18T12:47:05.988Z,338.33
2024-04-18T12:52:25.946Z,273.83
2024-04-18T12:57:45.014Z,139.53
2024-04-18T13:03:04.262Z,71.78
2024-04-18T13:08:24.223Z,564.28
2024-04-18T13:13:42.544Z,605.42
2024-04-18T13:19:01.777Z,554.27
2024-04-18T13:29:40.430Z,132.48
2024-04-18T13:34:59.362Z,455.94
2024-04-18T13:40:17.792Z,346.77
2024-04-18T13:45:38.003Z,152.97
2024-04-18T13:50:56.638Z,218.21
2024-04-18T13:56:15.052Z,558.22
2024-04-18T14:01:35.014Z,363.92
2024-04-18T14:06:54.284Z,86.86
2024-04-18T14:12:13.664Z,429.38
2024-04-18T14:17:33.134Z,482.78
2024-04-18T14:22:52.604Z,174.37
2024-04-18T14:28:15.890Z,594.14
2024-04-18T14:33:32.131Z,641.75
2024-04-18T14:38:49.807Z,447.15
2024-04-18T14:44:09.036Z,317.79
2024-04-18T14:54:47.489Z,99.39
2024-04-18T15:00:06.282Z,102.59
2024-04-18T15:05:25.737Z,113.14
2024-04-18T15:10:45.640Z,98.39
2024-04-18T15:16:03.935Z,104.09
2024-04-18T15:21:22.736Z,125.54
2024-04-18T15:26:41.915Z,211.54
2024-04-18T15:32:01.713Z,622.39
2024-04-18T15:37:21.280Z,505.08
2024-04-18T15:42:40.492Z,112.89
2024-04-18T15:48:00.291Z,606.94
2024-04-18T15:53:19.650Z,530.65
2024-04-18T16:03:58.393Z,322.25
2024-04-18T16:09:17.643Z,132.39
2024-04-18T16:14:36.424Z,113.89
2024-04-18T16:19:56.195Z,97.75
2024-04-18T16:30:34.643Z,87.7
2024-04-18T16:41:13.243Z,86.14
2024-04-18T16:46:32.904Z,83.55
2024-04-18T16:51:51.697Z,83.59
2024-04-18T16:57:11.332Z,85.7
2024-04-18T17:02:30.447Z,88.25
2024-04-18T17:07:50.068Z,89.5
2024-04-18T17:13:09.262Z,83.14
2024-04-18T17:23:47.809Z,81.25
2024-04-18T17:29:06.650Z,75.34
2024-04-18T17:39:45.808Z,69.15
2024-04-18T17:45:04.918Z,65.85
2024-04-18T17:50:23.730Z,63.25
2024-04-18T17:55:43.576Z,59.35
2024-04-18T18:01:02.324Z,50.5
2024-04-18T18:06:21.282Z,43.5
2024-04-18T18:11:40.243Z,34.19
2024-04-18T18:16:59.304Z,30.15
2024-04-18T18:22:19.132Z,20
2024-04-18T18:27:37.820Z,10
2024-04-18T18:32:57.435Z,4
2024-04-18T18:38:25.144Z,0
2024-04-18T18:43:35.169Z,0
2024-04-18T18:48:54.783Z,0
2024-04-18T18:54:14.109Z,0
2024-04-18T18:59:32.857Z,0
2024-04-18T19:04:52.001Z,0
2024-04-18T19:10:11.458Z,0
2024-04-18T19:20:49.409Z,0
2024-04-18T19:26:08.528Z,0
2024-04-18T19:31:27.403Z,0
2024-04-18T19:36:46.427Z,0
2024-04-18T19:42:05.879Z,0
2024-04-18T19:47:24.979Z,0
2024-04-18T19:52:44.731Z,0
2024-04-18T19:58:03.298Z,0
2024-04-18T20:03:23.013Z,0
2024-04-18T20:08:44.612Z,0
2024-04-18T20:19:21.381Z,0
2024-04-18T20:24:40.135Z,0
2024-04-18T20:29:59.329Z,0
2024-04-18T20:35:18.916Z,0
2024-04-18T20:40:38.027Z,0
2024-04-18T20:45:57.050Z,0
2024-04-18T20:51:16.537Z,0
2024-04-18T20:56:36.226Z,0
2024-04-18T21:01:54.930Z,0
2024-04-18T21:07:14.105Z,0
2024-04-18T21:12:33.392Z,0
2024-04-18T21:17:53.003Z,0
2024-04-18T21:23:11.617Z,0
2024-04-18T21:28:31.111Z,0
2024-04-18T21:33:50.660Z,0
2024-04-18T21:39:10.177Z,0
2024-04-18T21:44:29.351Z,0
2024-04-18T21:55:08.180Z,0
2024-04-18T22:00:27.454Z,0
2024-04-18T22:05:46.008Z,0
2024-04-18T22:11:05.369Z,0
2024-04-18T22:16:25.240Z,0
2024-04-18T22:21:45.000Z,0
2024-04-18T22:27:04.113Z,0
2024-04-18T22:32:23.232Z,0
2024-04-18T22:37:43.207Z,0
2024-04-18T22:43:02.595Z,0
2024-04-18T22:48:21.943Z,0
2024-04-18T22:53:41.612Z,0
2024-04-18T22:59:01.566Z,0
2024-04-18T23:05:35.813Z,0
2024-04-18T23:09:39.052Z,0
2024-04-18T23:14:58.146Z,0
2024-04-18T23:20:17.551Z,0
2024-04-18T23:25:36.067Z,0
2024-04-18T23:30:56.038Z,0
2024-04-18T23:36:14.570Z,0
2024-04-18T23:41:34.324Z,0
2024-04-18T23:46:53.711Z,0
2024-04-18T23:52:13.242Z,0
2024-04-18T23:57:33.642Z,0
